sensor_id;sensor_type;location;lat;lon;timestamp;temperature;humidity
25871;DHT22;13689;48.590;7.752;2023-03-31T00:02:02;15.10;61.80
25871;DHT22;13689;48.590;7.752;2023-03-31T00:04:41;15.00;62.00
25871;DHT22;13689;48.590;7.752;2023-03-31T00:07:12;15.00;62.20
25871;DHT22;13689;48.590;7.752;2023-03-31T00:09:38;15.00;62.30
25871;DHT22;13689;48.590;7.752;2023-03-31T00:12:06;15.00;62.30
25871;DHT22;13689;48.590;7.752;2023-03-31T00:14:32;15.00;62.30
25871;DHT22;13689;48.590;7.752;2023-03-31T00:16:57;15.00;62.30
25871;DHT22;13689;48.590;7.752;2023-03-31T00:19:23;15.00;62.30
25871;DHT22;13689;48.590;7.752;2023-03-31T00:21:49;14.90;62.30
25871;DHT22;13689;48.590;7.752;2023-03-31T00:24:16;14.90;62.40
25871;DHT22;13689;48.590;7.752;2023-03-31T00:26:42;14.90;62.40
25871;DHT22;13689;48.590;7.752;2023-03-31T00:29:10;14.90;62.40
25871;DHT22;13689;48.590;7.752;2023-03-31T00:31:36;14.90;62.50
25871;DHT22;13689;48.590;7.752;2023-03-31T00:34:03;14.90;62.50
25871;DHT22;13689;48.590;7.752;2023-03-31T00:36:30;14.90;62.50
25871;DHT22;13689;48.590;7.752;2023-03-31T00:38:58;14.90;62.50
25871;DHT22;13689;48.590;7.752;2023-03-31T00:41:25;14.90;62.80
25871;DHT22;13689;48.590;7.752;2023-03-31T00:46:44;14.80;63.90
25871;DHT22;13689;48.590;7.752;2023-03-31T00:52:18;14.70;66.50
25871;DHT22;13689;48.590;7.752;2023-03-31T00:54:52;14.60;66.60
25871;DHT22;13689;48.590;7.752;2023-03-31T00:57:19;14.50;67.50
25871;DHT22;13689;48.590;7.752;2023-03-31T00:59:48;14.40;68.60
25871;DHT22;13689;48.590;7.752;2023-03-31T01:02:15;14.30;69.50
25871;DHT22;13689;48.590;7.752;2023-03-31T01:04:47;14.20;70.00
25871;DHT22;13689;48.590;7.752;2023-03-31T01:07:23;14.10;70.50
25871;DHT22;13689;48.590;7.752;2023-03-31T01:09:52;14.10;71.00
25871;DHT22;13689;48.590;7.752;2023-03-31T01:12:19;14.10;71.30
25871;DHT22;13689;48.590;7.752;2023-03-31T01:14:46;14.10;71.60
25871;DHT22;13689;48.590;7.752;2023-03-31T01:17:14;14.10;71.50
25871;DHT22;13689;48.590;7.752;2023-03-31T01:44:27;14.30;70.70
25871;DHT22;13689;48.590;7.752;2023-03-31T01:47:01;14.30;70.60
25871;DHT22;13689;48.590;7.752;2023-03-31T01:49:45;14.30;70.60
25871;DHT22;13689;48.590;7.752;2023-03-31T01:55:03;14.30;70.50
25871;DHT22;13689;48.590;7.752;2023-03-31T01:57:32;14.30;70.50
25871;DHT22;13689;48.590;7.752;2023-03-31T02:02:49;14.30;70.30
25871;DHT22;13689;48.590;7.752;2023-03-31T02:05:29;14.30;70.10
25871;DHT22;13689;48.590;7.752;2023-03-31T02:08:03;14.30;70.00
25871;DHT22;13689;48.590;7.752;2023-03-31T02:10:31;14.30;69.80
25871;DHT22;13689;48.590;7.752;2023-03-31T02:12:59;14.20;69.60
25871;DHT22;13689;48.590;7.752;2023-03-31T02:15:29;14.20;69.70
25871;DHT22;13689;48.590;7.752;2023-03-31T02:17:59;14.10;69.80
25871;DHT22;13689;48.590;7.752;2023-03-31T02:20:28;14.10;69.80
25871;DHT22;13689;48.590;7.752;2023-03-31T02:22:57;14.20;70.00
25871;DHT22;13689;48.590;7.752;2023-03-31T02:25:32;14.10;70.00
25871;DHT22;13689;48.590;7.752;2023-03-31T02:28:03;14.00;70.10
25871;DHT22;13689;48.590;7.752;2023-03-31T02:33:19;14.00;70.60
25871;DHT22;13689;48.590;7.752;2023-03-31T02:35:45;14.00;70.60
25871;DHT22;13689;48.590;7.752;2023-03-31T02:38:11;13.90;70.50
25871;DHT22;13689;48.590;7.752;2023-03-31T02:40:36;13.90;70.60
25871;DHT22;13689;48.590;7.752;2023-03-31T02:43:03;13.90;70.80
25871;DHT22;13689;48.590;7.752;2023-03-31T02:45:46;13.90;70.90
25871;DHT22;13689;48.590;7.752;2023-03-31T02:48:27;13.80;71.00
25871;DHT22;13689;48.590;7.752;2023-03-31T03:01:35;13.70;71.80
25871;DHT22;13689;48.590;7.752;2023-03-31T03:06:46;13.70;72.10
25871;DHT22;13689;48.590;7.752;2023-03-31T03:09:37;13.60;72.10
25871;DHT22;13689;48.590;7.752;2023-03-31T03:12:12;13.60;72.30
25871;DHT22;13689;48.590;7.752;2023-03-31T03:14:50;13.50;72.50
25871;DHT22;13689;48.590;7.752;2023-03-31T03:20:05;13.50;72.70
25871;DHT22;13689;48.590;7.752;2023-03-31T03:22:35;13.40;72.80
25871;DHT22;13689;48.590;7.752;2023-03-31T03:25:02;13.30;73.10
25871;DHT22;13689;48.590;7.752;2023-03-31T03:27:27;13.30;73.30
25871;DHT22;13689;48.590;7.752;2023-03-31T03:29:53;13.30;73.50
25871;DHT22;13689;48.590;7.752;2023-03-31T03:32:19;13.40;73.50
25871;DHT22;13689;48.590;7.752;2023-03-31T03:34:44;13.40;73.40
25871;DHT22;13689;48.590;7.752;2023-03-31T03:37:10;13.40;73.50
25871;DHT22;13689;48.590;7.752;2023-03-31T03:39:36;13.50;73.40
25871;DHT22;13689;48.590;7.752;2023-03-31T03:42:01;13.50;73.30
25871;DHT22;13689;48.590;7.752;2023-03-31T03:44:27;13.50;73.30
25871;DHT22;13689;48.590;7.752;2023-03-31T03:46:53;13.60;73.30
25871;DHT22;13689;48.590;7.752;2023-03-31T03:49:18;13.60;73.40
25871;DHT22;13689;48.590;7.752;2023-03-31T03:51:45;13.60;73.30
25871;DHT22;13689;48.590;7.752;2023-03-31T03:54:10;13.70;73.50
25871;DHT22;13689;48.590;7.752;2023-03-31T03:56:36;13.70;73.20
25871;DHT22;13689;48.590;7.752;2023-03-31T03:59:01;13.70;73.10
25871;DHT22;13689;48.590;7.752;2023-03-31T04:01:27;13.70;73.20
25871;DHT22;13689;48.590;7.752;2023-03-31T04:03:53;13.70;73.50
25871;DHT22;13689;48.590;7.752;2023-03-31T04:06:20;13.70;74.00
25871;DHT22;13689;48.590;7.752;2023-03-31T04:08:45;13.60;74.60
25871;DHT22;13689;48.590;7.752;2023-03-31T04:11:17;13.60;75.10
25871;DHT22;13689;48.590;7.752;2023-03-31T04:13:46;13.50;75.40
25871;DHT22;13689;48.590;7.752;2023-03-31T04:16:11;13.50;75.30
25871;DHT22;13689;48.590;7.752;2023-03-31T04:18:37;13.40;75.50
25871;DHT22;13689;48.590;7.752;2023-03-31T04:21:09;13.40;75.80
25871;DHT22;13689;48.590;7.752;2023-03-31T04:23:37;13.30;76.10
25871;DHT22;13689;48.590;7.752;2023-03-31T04:26:08;13.20;76.80
25871;DHT22;13689;48.590;7.752;2023-03-31T04:28:35;13.20;77.80
25871;DHT22;13689;48.590;7.752;2023-03-31T04:31:02;13.10;78.40
25871;DHT22;13689;48.590;7.752;2023-03-31T04:33:28;13.10;79.10
25871;DHT22;13689;48.590;7.752;2023-03-31T04:35:54;13.10;79.40
25871;DHT22;13689;48.590;7.752;2023-03-31T04:38:23;13.10;79.30
25871;DHT22;13689;48.590;7.752;2023-03-31T04:40:52;13.10;79.30
25871;DHT22;13689;48.590;7.752;2023-03-31T04:43:19;13.10;79.20
25871;DHT22;13689;48.590;7.752;2023-03-31T04:45:45;13.10;79.20
25871;DHT22;13689;48.590;7.752;2023-03-31T04:48:11;13.10;79.10
25871;DHT22;13689;48.590;7.752;2023-03-31T04:50:37;13.10;79.10
25871;DHT22;13689;48.590;7.752;2023-03-31T04:53:03;13.10;79.50
25871;DHT22;13689;48.590;7.752;2023-03-31T04:55:29;13.10;79.80
25871;DHT22;13689;48.590;7.752;2023-03-31T04:57:55;13.00;80.10
25871;DHT22;13689;48.590;7.752;2023-03-31T05:00:21;13.00;80.40
25871;DHT22;13689;48.590;7.752;2023-03-31T05:02:47;13.00;80.50
25871;DHT22;13689;48.590;7.752;2023-03-31T05:05:13;12.90;80.70
25871;DHT22;13689;48.590;7.752;2023-03-31T05:07:38;12.90;80.80
25871;DHT22;13689;48.590;7.752;2023-03-31T05:10:06;12.90;81.00
25871;DHT22;13689;48.590;7.752;2023-03-31T05:12:38;12.80;81.30
25871;DHT22;13689;48.590;7.752;2023-03-31T05:15:05;12.80;81.50
25871;DHT22;13689;48.590;7.752;2023-03-31T05:17:32;12.80;81.80
25871;DHT22;13689;48.590;7.752;2023-03-31T05:19:58;12.80;82.10
25871;DHT22;13689;48.590;7.752;2023-03-31T05:22:24;12.70;82.40
25871;DHT22;13689;48.590;7.752;2023-03-31T05:24:50;12.70;82.70
25871;DHT22;13689;48.590;7.752;2023-03-31T05:27:16;12.70;83.10
25871;DHT22;13689;48.590;7.752;2023-03-31T05:29:41;12.60;83.20
25871;DHT22;13689;48.590;7.752;2023-03-31T05:32:08;12.60;83.40
25871;DHT22;13689;48.590;7.752;2023-03-31T05:34:34;12.70;83.50
25871;DHT22;13689;48.590;7.752;2023-03-31T05:36:59;12.60;83.50
25871;DHT22;13689;48.590;7.752;2023-03-31T05:39:25;12.70;83.60
25871;DHT22;13689;48.590;7.752;2023-03-31T05:41:51;12.70;83.70
25871;DHT22;13689;48.590;7.752;2023-03-31T05:44:16;12.70;83.80
25871;DHT22;13689;48.590;7.752;2023-03-31T05:46:44;12.70;83.60
25871;DHT22;13689;48.590;7.752;2023-03-31T05:49:10;12.70;83.70
25871;DHT22;13689;48.590;7.752;2023-03-31T05:51:36;12.80;83.70
25871;DHT22;13689;48.590;7.752;2023-03-31T05:54:02;12.70;83.60
25871;DHT22;13689;48.590;7.752;2023-03-31T05:56:27;12.60;83.90
25871;DHT22;13689;48.590;7.752;2023-03-31T05:58:53;12.60;84.40
25871;DHT22;13689;48.590;7.752;2023-03-31T06:01:18;12.50;85.10
25871;DHT22;13689;48.590;7.752;2023-03-31T06:03:47;12.50;85.40
25871;DHT22;13689;48.590;7.752;2023-03-31T06:06:13;12.40;85.60
25871;DHT22;13689;48.590;7.752;2023-03-31T06:08:39;12.40;85.70
25871;DHT22;13689;48.590;7.752;2023-03-31T06:11:06;12.40;85.80
25871;DHT22;13689;48.590;7.752;2023-03-31T06:13:33;12.30;86.10
25871;DHT22;13689;48.590;7.752;2023-03-31T06:15:59;12.40;86.40
25871;DHT22;13689;48.590;7.752;2023-03-31T06:18:30;12.30;86.50
25871;DHT22;13689;48.590;7.752;2023-03-31T06:20:56;12.30;86.80
25871;DHT22;13689;48.590;7.752;2023-03-31T06:23:23;12.30;86.80
25871;DHT22;13689;48.590;7.752;2023-03-31T06:25:50;12.30;86.90
25871;DHT22;13689;48.590;7.752;2023-03-31T06:28:16;12.30;86.80
25871;DHT22;13689;48.590;7.752;2023-03-31T06:30:41;12.40;86.80
25871;DHT22;13689;48.590;7.752;2023-03-31T06:33:07;12.40;86.60
25871;DHT22;13689;48.590;7.752;2023-03-31T06:35:36;12.50;86.60
25871;DHT22;13689;48.590;7.752;2023-03-31T06:38:02;12.50;86.50
25871;DHT22;13689;48.590;7.752;2023-03-31T06:40:28;12.60;86.70
25871;DHT22;13689;48.590;7.752;2023-03-31T06:42:54;12.70;86.70
25871;DHT22;13689;48.590;7.752;2023-03-31T06:45:20;12.70;86.20
25871;DHT22;13689;48.590;7.752;2023-03-31T06:47:46;12.70;85.90
25871;DHT22;13689;48.590;7.752;2023-03-31T06:50:14;12.80;85.60
25871;DHT22;13689;48.590;7.752;2023-03-31T06:52:47;12.90;85.30
25871;DHT22;13689;48.590;7.752;2023-03-31T06:55:13;13.00;84.80
25871;DHT22;13689;48.590;7.752;2023-03-31T06:57:45;13.00;84.20
25871;DHT22;13689;48.590;7.752;2023-03-31T07:00:11;13.00;83.90
25871;DHT22;13689;48.590;7.752;2023-03-31T07:02:37;12.90;83.40
25871;DHT22;13689;48.590;7.752;2023-03-31T07:05:03;12.90;83.10
25871;DHT22;13689;48.590;7.752;2023-03-31T07:07:32;12.90;83.00
25871;DHT22;13689;48.590;7.752;2023-03-31T07:09:58;13.00;83.00
25871;DHT22;13689;48.590;7.752;2023-03-31T07:12:24;13.00;82.60
25871;DHT22;13689;48.590;7.752;2023-03-31T07:14:50;13.10;82.40
25871;DHT22;13689;48.590;7.752;2023-03-31T07:17:16;13.10;82.10
25871;DHT22;13689;48.590;7.752;2023-03-31T07:19:41;13.20;82.00
25871;DHT22;13689;48.590;7.752;2023-03-31T07:22:07;13.30;81.60
25871;DHT22;13689;48.590;7.752;2023-03-31T07:24:33;13.40;81.30
25871;DHT22;13689;48.590;7.752;2023-03-31T07:27:02;13.40;81.00
25871;DHT22;13689;48.590;7.752;2023-03-31T07:29:46;13.40;80.60
25871;DHT22;13689;48.590;7.752;2023-03-31T07:32:14;13.40;80.30
25871;DHT22;13689;48.590;7.752;2023-03-31T07:34:39;13.40;80.20
25871;DHT22;13689;48.590;7.752;2023-03-31T07:37:06;13.50;80.00
25871;DHT22;13689;48.590;7.752;2023-03-31T07:39:31;13.60;79.70
25871;DHT22;13689;48.590;7.752;2023-03-31T07:41:57;13.60;79.50
25871;DHT22;13689;48.590;7.752;2023-03-31T07:44:23;13.60;79.30
25871;DHT22;13689;48.590;7.752;2023-03-31T07:46:48;13.70;79.30
25871;DHT22;13689;48.590;7.752;2023-03-31T07:49:14;13.70;79.10
25871;DHT22;13689;48.590;7.752;2023-03-31T07:51:40;13.80;79.00
25871;DHT22;13689;48.590;7.752;2023-03-31T07:54:06;13.80;79.00
25871;DHT22;13689;48.590;7.752;2023-03-31T07:56:32;13.80;79.10
25871;DHT22;13689;48.590;7.752;2023-03-31T07:58:57;13.90;79.00
25871;DHT22;13689;48.590;7.752;2023-03-31T08:01:23;13.90;79.10
25871;DHT22;13689;48.590;7.752;2023-03-31T08:03:51;13.90;79.10
25871;DHT22;13689;48.590;7.752;2023-03-31T08:06:21;13.90;79.30
25871;DHT22;13689;48.590;7.752;2023-03-31T08:08:48;13.90;79.40
25871;DHT22;13689;48.590;7.752;2023-03-31T08:11:15;13.90;79.50
25871;DHT22;13689;48.590;7.752;2023-03-31T08:13:40;13.90;79.50
25871;DHT22;13689;48.590;7.752;2023-03-31T08:16:06;14.00;79.60
25871;DHT22;13689;48.590;7.752;2023-03-31T08:18:32;14.00;79.30
25871;DHT22;13689;48.590;7.752;2023-03-31T08:20:57;14.30;79.00
25871;DHT22;13689;48.590;7.752;2023-03-31T08:23:23;14.40;78.30
25871;DHT22;13689;48.590;7.752;2023-03-31T08:25:49;15.40;76.30
25871;DHT22;13689;48.590;7.752;2023-03-31T08:28:15;16.30;73.40
25871;DHT22;13689;48.590;7.752;2023-03-31T08:30:42;17.50;69.40
25871;DHT22;13689;48.590;7.752;2023-03-31T08:33:07;17.50;67.50
25871;DHT22;13689;48.590;7.752;2023-03-31T08:35:36;17.80;67.10
25871;DHT22;13689;48.590;7.752;2023-03-31T08:38:02;17.40;65.20
25871;DHT22;13689;48.590;7.752;2023-03-31T08:40:29;17.00;65.10
25871;DHT22;13689;48.590;7.752;2023-03-31T08:43:04;16.60;65.60
25871;DHT22;13689;48.590;7.752;2023-03-31T08:45:35;16.20;66.10
25871;DHT22;13689;48.590;7.752;2023-03-31T08:50:53;15.90;66.50
25871;DHT22;13689;48.590;7.752;2023-03-31T08:53:30;15.90;66.30
25871;DHT22;13689;48.590;7.752;2023-03-31T08:55:57;15.70;65.60
25871;DHT22;13689;48.590;7.752;2023-03-31T08:58:41;15.50;64.50
25871;DHT22;13689;48.590;7.752;2023-03-31T09:09:00;15.10;63.80
25871;DHT22;13689;48.590;7.752;2023-03-31T09:14:18;15.20;63.60
25871;DHT22;13689;48.590;7.752;2023-03-31T09:19:37;15.30;63.10
25871;DHT22;13689;48.590;7.752;2023-03-31T09:22:12;15.40;62.30
25871;DHT22;13689;48.590;7.752;2023-03-31T09:24:47;15.50;61.10
25871;DHT22;13689;48.590;7.752;2023-03-31T09:27:14;15.80;59.90
25871;DHT22;13689;48.590;7.752;2023-03-31T09:29:51;16.00;59.20
25871;DHT22;13689;48.590;7.752;2023-03-31T09:32:23;16.30;58.50
25871;DHT22;13689;48.590;7.752;2023-03-31T09:34:52;16.50;57.90
25871;DHT22;13689;48.590;7.752;2023-03-31T09:37:22;16.70;57.50
25871;DHT22;13689;48.590;7.752;2023-03-31T09:39:49;16.90;57.20
25871;DHT22;13689;48.590;7.752;2023-03-31T09:42:15;16.90;56.80
25871;DHT22;13689;48.590;7.752;2023-03-31T09:44:45;16.90;56.40
25871;DHT22;13689;48.590;7.752;2023-03-31T09:47:38;16.90;56.80
25871;DHT22;13689;48.590;7.752;2023-03-31T09:50:06;16.70;56.10
25871;DHT22;13689;48.590;7.752;2023-03-31T09:52:51;16.50;56.30
25871;DHT22;13689;48.590;7.752;2023-03-31T09:55:21;16.30;56.60
25871;DHT22;13689;48.590;7.752;2023-03-31T09:57:47;16.10;56.90
25871;DHT22;13689;48.590;7.752;2023-03-31T10:00:21;15.90;57.30
25871;DHT22;13689;48.590;7.752;2023-03-31T10:02:54;15.70;57.60
25871;DHT22;13689;48.590;7.752;2023-03-31T10:05:32;15.50;58.00
25871;DHT22;13689;48.590;7.752;2023-03-31T10:08:21;15.30;58.30
25871;DHT22;13689;48.590;7.752;2023-03-31T10:10:57;15.10;58.50
25871;DHT22;13689;48.590;7.752;2023-03-31T10:16:29;14.40;62.30
25871;DHT22;13689;48.590;7.752;2023-03-31T10:19:28;14.00;66.50
25871;DHT22;13689;48.590;7.752;2023-03-31T10:22:02;13.70;69.60
25871;DHT22;13689;48.590;7.752;2023-03-31T10:24:42;13.40;71.70
25871;DHT22;13689;48.590;7.752;2023-03-31T10:29:46;13.50;72.10
25871;DHT22;13689;48.590;7.752;2023-03-31T10:32:21;13.60;71.20
25871;DHT22;13689;48.590;7.752;2023-03-31T10:34:48;13.50;70.10
25871;DHT22;13689;48.590;7.752;2023-03-31T10:37:17;13.50;69.60
25871;DHT22;13689;48.590;7.752;2023-03-31T10:39:47;13.50;68.90
25871;DHT22;13689;48.590;7.752;2023-03-31T10:42:21;13.40;68.60
25871;DHT22;13689;48.590;7.752;2023-03-31T10:44:48;13.40;68.30
25871;DHT22;13689;48.590;7.752;2023-03-31T10:47:19;13.50;68.00
25871;DHT22;13689;48.590;7.752;2023-03-31T10:49:48;13.60;67.80
25871;DHT22;13689;48.590;7.752;2023-03-31T10:52:20;13.80;67.70
25871;DHT22;13689;48.590;7.752;2023-03-31T10:55:10;13.90;67.30
25871;DHT22;13689;48.590;7.752;2023-03-31T10:57:52;14.10;67.10
25871;DHT22;13689;48.590;7.752;2023-03-31T11:00:47;14.20;66.70
25871;DHT22;13689;48.590;7.752;2023-03-31T11:03:26;14.50;66.10
25871;DHT22;13689;48.590;7.752;2023-03-31T11:06:07;14.70;65.50
25871;DHT22;13689;48.590;7.752;2023-03-31T11:08:47;14.90;64.90
25871;DHT22;13689;48.590;7.752;2023-03-31T11:11:28;15.00;64.00
25871;DHT22;13689;48.590;7.752;2023-03-31T11:14:19;15.10;63.00
25871;DHT22;13689;48.590;7.752;2023-03-31T11:24:45;15.30;61.20
25871;DHT22;13689;48.590;7.752;2023-03-31T11:35:50;15.00;61.00
25871;DHT22;13689;48.590;7.752;2023-03-31T11:41:30;15.30;60.90
25871;DHT22;13689;48.590;7.752;2023-03-31T11:44:01;15.50;60.70
25871;DHT22;13689;48.590;7.752;2023-03-31T11:49:25;15.70;60.10
25871;DHT22;13689;48.590;7.752;2023-03-31T11:52:16;15.80;60.00
25871;DHT22;13689;48.590;7.752;2023-03-31T11:54:56;15.80;59.70
25871;DHT22;13689;48.590;7.752;2023-03-31T12:00:19;15.60;59.80
25871;DHT22;13689;48.590;7.752;2023-03-31T12:05:16;15.10;62.00
25871;DHT22;13689;48.590;7.752;2023-03-31T12:08:00;14.90;63.20
25871;DHT22;13689;48.590;7.752;2023-03-31T12:10:38;14.70;64.10
25871;DHT22;13689;48.590;7.752;2023-03-31T12:18:35;14.00;67.90
25871;DHT22;13689;48.590;7.752;2023-03-31T12:21:03;13.80;69.10
25871;DHT22;13689;48.590;7.752;2023-03-31T12:23:37;13.60;70.60
25871;DHT22;13689;48.590;7.752;2023-03-31T12:28:35;13.40;72.60
25871;DHT22;13689;48.590;7.752;2023-03-31T12:31:05;13.50;73.50
25871;DHT22;13689;48.590;7.752;2023-03-31T12:33:42;13.40;74.00
25871;DHT22;13689;48.590;7.752;2023-03-31T12:42:43;13.10;74.80
25871;DHT22;13689;48.590;7.752;2023-03-31T12:45:27;12.90;75.20
25871;DHT22;13689;48.590;7.752;2023-03-31T12:53:47;12.90;75.30
25871;DHT22;13689;48.590;7.752;2023-03-31T12:56:17;13.10;74.90
25871;DHT22;13689;48.590;7.752;2023-03-31T12:58:44;13.30;74.30
25871;DHT22;13689;48.590;7.752;2023-03-31T13:03:51;13.70;72.80
25871;DHT22;13689;48.590;7.752;2023-03-31T13:11:45;14.60;70.10
25871;DHT22;13689;48.590;7.752;2023-03-31T13:14:26;14.80;69.40
25871;DHT22;13689;48.590;7.752;2023-03-31T13:17:11;14.90;68.40
25871;DHT22;13689;48.590;7.752;2023-03-31T13:19:40;15.00;67.30
25871;DHT22;13689;48.590;7.752;2023-03-31T13:22:19;15.00;66.70
25871;DHT22;13689;48.590;7.752;2023-03-31T13:24:52;15.10;66.40
25871;DHT22;13689;48.590;7.752;2023-03-31T13:27:30;15.20;66.30
25871;DHT22;13689;48.590;7.752;2023-03-31T13:29:58;15.30;65.90
25871;DHT22;13689;48.590;7.752;2023-03-31T13:32:24;15.40;65.20
25871;DHT22;13689;48.590;7.752;2023-03-31T13:40:55;15.30;63.90
25871;DHT22;13689;48.590;7.752;2023-03-31T13:43:47;15.30;63.10
25871;DHT22;13689;48.590;7.752;2023-03-31T13:51:55;15.10;64.60
25871;DHT22;13689;48.590;7.752;2023-03-31T13:54:49;15.10;63.80
25871;DHT22;13689;48.590;7.752;2023-03-31T14:00:13;15.10;63.50
25871;DHT22;13689;48.590;7.752;2023-03-31T14:06:04;15.30;63.40
25871;DHT22;13689;48.590;7.752;2023-03-31T14:08:47;15.40;63.20
25871;DHT22;13689;48.590;7.752;2023-03-31T14:11:24;15.40;63.10
25871;DHT22;13689;48.590;7.752;2023-03-31T14:14:01;15.40;62.30
25871;DHT22;13689;48.590;7.752;2023-03-31T14:16:30;15.50;62.30
25871;DHT22;13689;48.590;7.752;2023-03-31T14:27:40;15.60;62.30
25871;DHT22;13689;48.590;7.752;2023-03-31T14:30:17;15.60;61.80
25871;DHT22;13689;48.590;7.752;2023-03-31T14:33:03;15.60;61.10
25871;DHT22;13689;48.590;7.752;2023-03-31T14:35:34;15.50;60.50
25871;DHT22;13689;48.590;7.752;2023-03-31T14:38:08;15.40;60.00
25871;DHT22;13689;48.590;7.752;2023-03-31T14:40:44;15.40;59.90
25871;DHT22;13689;48.590;7.752;2023-03-31T14:43:24;15.40;59.70
25871;DHT22;13689;48.590;7.752;2023-03-31T14:46:02;15.40;59.50
25871;DHT22;13689;48.590;7.752;2023-03-31T14:48:30;15.40;59.10
25871;DHT22;13689;48.590;7.752;2023-03-31T14:50:59;15.40;59.20
25871;DHT22;13689;48.590;7.752;2023-03-31T14:53:26;15.30;59.30
25871;DHT22;13689;48.590;7.752;2023-03-31T14:56:13;15.20;59.60
25871;DHT22;13689;48.590;7.752;2023-03-31T14:58:47;15.10;60.00
25871;DHT22;13689;48.590;7.752;2023-03-31T15:01:19;15.00;60.40
25871;DHT22;13689;48.590;7.752;2023-03-31T15:03:49;14.90;61.00
25871;DHT22;13689;48.590;7.752;2023-03-31T15:06:15;14.80;61.30
25871;DHT22;13689;48.590;7.752;2023-03-31T15:08:41;14.80;61.90
25871;DHT22;13689;48.590;7.752;2023-03-31T15:11:11;14.40;64.50
25871;DHT22;13689;48.590;7.752;2023-03-31T15:13:46;14.10;67.10
25871;DHT22;13689;48.590;7.752;2023-03-31T15:16:44;13.70;69.10
25871;DHT22;13689;48.590;7.752;2023-03-31T15:19:19;13.40;70.60
25871;DHT22;13689;48.590;7.752;2023-03-31T15:21:52;13.10;72.30
25871;DHT22;13689;48.590;7.752;2023-03-31T15:24:19;12.80;73.30
25871;DHT22;13689;48.590;7.752;2023-03-31T15:29:17;12.60;74.30
25871;DHT22;13689;48.590;7.752;2023-03-31T15:31:44;12.60;74.40
25871;DHT22;13689;48.590;7.752;2023-03-31T15:34:27;12.70;74.50
25871;DHT22;13689;48.590;7.752;2023-03-31T15:36:55;12.70;74.10
25871;DHT22;13689;48.590;7.752;2023-03-31T15:39:23;12.80;73.70
25871;DHT22;13689;48.590;7.752;2023-03-31T15:41:49;12.90;73.50
25871;DHT22;13689;48.590;7.752;2023-03-31T15:44:37;12.90;73.20
25871;DHT22;13689;48.590;7.752;2023-03-31T15:47:21;13.00;73.10
25871;DHT22;13689;48.590;7.752;2023-03-31T15:52:38;13.10;72.70
25871;DHT22;13689;48.590;7.752;2023-03-31T15:57:48;13.20;72.30
25871;DHT22;13689;48.590;7.752;2023-03-31T16:03:03;13.30;72.00
25871;DHT22;13689;48.590;7.752;2023-03-31T16:05:54;13.30;71.90
25871;DHT22;13689;48.590;7.752;2023-03-31T16:10:57;13.40;71.90
25871;DHT22;13689;48.590;7.752;2023-03-31T16:13:23;13.40;71.80
25871;DHT22;13689;48.590;7.752;2023-03-31T16:15:52;13.40;71.80
25871;DHT22;13689;48.590;7.752;2023-03-31T16:18:30;13.40;71.80
25871;DHT22;13689;48.590;7.752;2023-03-31T16:21:00;13.40;71.80
25871;DHT22;13689;48.590;7.752;2023-03-31T16:23:28;13.50;71.80
25871;DHT22;13689;48.590;7.752;2023-03-31T16:25:55;13.50;71.70
25871;DHT22;13689;48.590;7.752;2023-03-31T16:28:23;13.50;71.70
25871;DHT22;13689;48.590;7.752;2023-03-31T16:30:50;13.40;71.50
25871;DHT22;13689;48.590;7.752;2023-03-31T16:33:18;13.30;71.50
25871;DHT22;13689;48.590;7.752;2023-03-31T16:35:46;13.30;72.00
25871;DHT22;13689;48.590;7.752;2023-03-31T16:38:22;13.20;72.50
25871;DHT22;13689;48.590;7.752;2023-03-31T16:40:54;13.20;72.50
25871;DHT22;13689;48.590;7.752;2023-03-31T16:43:28;13.30;72.50
25871;DHT22;13689;48.590;7.752;2023-03-31T16:45:57;13.20;72.70
25871;DHT22;13689;48.590;7.752;2023-03-31T16:48:25;13.30;73.00
25871;DHT22;13689;48.590;7.752;2023-03-31T16:50:53;13.30;73.10
25871;DHT22;13689;48.590;7.752;2023-03-31T16:53:24;13.30;73.20
25871;DHT22;13689;48.590;7.752;2023-03-31T16:55:52;13.30;73.10
25871;DHT22;13689;48.590;7.752;2023-03-31T16:58:17;13.20;73.40
25871;DHT22;13689;48.590;7.752;2023-03-31T17:00:44;13.30;73.50
25871;DHT22;13689;48.590;7.752;2023-03-31T17:03:10;13.30;73.50
25871;DHT22;13689;48.590;7.752;2023-03-31T17:05:38;13.30;73.60
25871;DHT22;13689;48.590;7.752;2023-03-31T17:08:05;13.20;73.40
25871;DHT22;13689;48.590;7.752;2023-03-31T17:10:33;13.30;73.50
25871;DHT22;13689;48.590;7.752;2023-03-31T17:12:59;13.40;73.30
25871;DHT22;13689;48.590;7.752;2023-03-31T17:15:24;13.50;73.00
25871;DHT22;13689;48.590;7.752;2023-03-31T17:17:50;13.50;72.70
25871;DHT22;13689;48.590;7.752;2023-03-31T17:20:16;13.40;72.60
25871;DHT22;13689;48.590;7.752;2023-03-31T17:22:42;13.40;72.40
25871;DHT22;13689;48.590;7.752;2023-03-31T17:25:08;13.40;72.20
25871;DHT22;13689;48.590;7.752;2023-03-31T17:27:34;13.40;72.00
25871;DHT22;13689;48.590;7.752;2023-03-31T17:29:59;13.40;72.40
25871;DHT22;13689;48.590;7.752;2023-03-31T17:32:25;13.40;70.90
25871;DHT22;13689;48.590;7.752;2023-03-31T17:34:51;13.40;70.60
25871;DHT22;13689;48.590;7.752;2023-03-31T17:37:18;13.30;70.40
25871;DHT22;13689;48.590;7.752;2023-03-31T17:39:44;13.30;70.40
25871;DHT22;13689;48.590;7.752;2023-03-31T17:42:11;13.30;70.20
25871;DHT22;13689;48.590;7.752;2023-03-31T17:44:41;13.30;70.10
25871;DHT22;13689;48.590;7.752;2023-03-31T17:47:06;13.30;70.30
25871;DHT22;13689;48.590;7.752;2023-03-31T17:49:32;13.30;70.20
25871;DHT22;13689;48.590;7.752;2023-03-31T17:51:58;13.30;70.30
25871;DHT22;13689;48.590;7.752;2023-03-31T17:54:25;13.30;70.30
25871;DHT22;13689;48.590;7.752;2023-03-31T17:56:51;13.20;70.30
25871;DHT22;13689;48.590;7.752;2023-03-31T17:59:20;13.20;70.30
25871;DHT22;13689;48.590;7.752;2023-03-31T18:01:49;13.20;70.30
25871;DHT22;13689;48.590;7.752;2023-03-31T18:04:16;13.10;70.40
25871;DHT22;13689;48.590;7.752;2023-03-31T18:06:42;13.10;70.30
25871;DHT22;13689;48.590;7.752;2023-03-31T18:09:09;13.10;70.20
25871;DHT22;13689;48.590;7.752;2023-03-31T18:11:35;13.10;69.90
25871;DHT22;13689;48.590;7.752;2023-03-31T18:14:02;13.10;70.50
25871;DHT22;13689;48.590;7.752;2023-03-31T18:16:29;13.10;69.60
25871;DHT22;13689;48.590;7.752;2023-03-31T18:18:55;13.10;69.60
25871;DHT22;13689;48.590;7.752;2023-03-31T18:21:21;13.10;69.40
25871;DHT22;13689;48.590;7.752;2023-03-31T18:23:49;13.10;69.30
25871;DHT22;13689;48.590;7.752;2023-03-31T18:26:20;13.10;69.30
25871;DHT22;13689;48.590;7.752;2023-03-31T18:28:47;13.00;69.20
25871;DHT22;13689;48.590;7.752;2023-03-31T18:31:12;13.10;69.10
25871;DHT22;13689;48.590;7.752;2023-03-31T18:33:38;13.00;69.00
25871;DHT22;13689;48.590;7.752;2023-03-31T18:36:05;13.00;69.00
25871;DHT22;13689;48.590;7.752;2023-03-31T18:38:31;13.00;69.00
25871;DHT22;13689;48.590;7.752;2023-03-31T18:40:57;13.00;68.90